sensor_id;sensor_type;location;lat;lon;timestamp;pressure;altitude;pressure_sealevel;temperature;humidity
72038;BME280;59900;50.788;12.904;2023-01-05T00:00:10;97177.53;;;8.85;92.30
72038;BME280;59900;50.788;12.904;2023-01-05T00:02:35;97185.94;;;8.81;92.50
72038;BME280;59900;50.788;12.904;2023-01-05T00:05:00;97167.81;;;8.79;92.94
72038;BME280;59900;50.788;12.904;2023-01-05T00:07:26;97153.47;;;8.75;94.31
72038;BME280;59900;50.788;12.904;2023-01-05T00:09:51;97167.34;;;8.69;94.67
72038;BME280;59900;50.788;12.904;2023-01-05T00:12:16;97156.66;;;8.64;94.65
72038;BME280;59900;50.788;12.904;2023-01-05T00:15:00;97155.41;;;8.60;94.46
72038;BME280;59900;50.788;12.904;2023-01-05T00:17:44;97154.41;;;8.61;94.08
72038;BME280;59900;50.788;12.904;2023-01-05T00:20:28;97139.50;;;8.62;93.67
72038;BME280;59900;50.788;12.904;2023-01-05T00:23:11;97144.16;;;8.66;93.10
72038;BME280;59900;50.788;12.904;2023-01-05T00:25:38;97153.25;;;8.70;92.80
72038;BME280;59900;50.788;12.904;2023-01-05T00:28:04;97157.13;;;8.74;92.15
72038;BME280;59900;50.788;12.904;2023-01-05T00:30:33;97145.22;;;8.78;91.42
72038;BME280;59900;50.788;12.904;2023-01-05T00:32:58;97161.19;;;8.83;90.38
72038;BME280;59900;50.788;12.904;2023-01-05T00:35:23;97154.75;;;8.86;90.38
72038;BME280;59900;50.788;12.904;2023-01-05T00:37:49;97156.78;;;8.90;90.15
72038;BME280;59900;50.788;12.904;2023-01-05T00:40:17;97156.41;;;8.93;89.94
72038;BME280;59900;50.788;12.904;2023-01-05T00:42:43;97176.53;;;8.93;89.72
72038;BME280;59900;50.788;12.904;2023-01-05T00:45:10;97168.28;;;8.96;89.27
72038;BME280;59900;50.788;12.904;2023-01-05T00:47:36;97167.09;;;8.98;88.27
72038;BME280;59900;50.788;12.904;2023-01-05T00:50:01;97171.94;;;9.01;87.61
72038;BME280;59900;50.788;12.904;2023-01-05T00:52:27;97165.31;;;9.06;87.75
72038;BME280;59900;50.788;12.904;2023-01-05T00:54:52;97167.72;;;9.07;86.97
72038;BME280;59900;50.788;12.904;2023-01-05T00:57:17;97163.94;;;9.10;86.94
72038;BME280;59900;50.788;12.904;2023-01-05T00:59:42;97176.28;;;9.16;85.63
72038;BME280;59900;50.788;12.904;2023-01-05T01:02:08;97166.56;;;9.16;85.07
72038;BME280;59900;50.788;12.904;2023-01-05T01:04:34;97189.78;;;9.19;84.90
72038;BME280;59900;50.788;12.904;2023-01-05T01:07:00;97171.03;;;9.22;84.49
72038;BME280;59900;50.788;12.904;2023-01-05T01:09:25;97159.72;;;9.22;84.22
72038;BME280;59900;50.788;12.904;2023-01-05T01:11:51;97162.34;;;9.22;83.87
72038;BME280;59900;50.788;12.904;2023-01-05T01:14:16;97166.59;;;9.23;83.68
72038;BME280;59900;50.788;12.904;2023-01-05T01:16:42;97169.81;;;9.25;83.43
72038;BME280;59900;50.788;12.904;2023-01-05T01:19:11;97160.16;;;9.25;82.63
72038;BME280;59900;50.788;12.904;2023-01-05T01:21:37;97168.44;;;9.29;82.24
72038;BME280;59900;50.788;12.904;2023-01-05T01:24:02;97171.66;;;9.31;81.43
72038;BME280;59900;50.788;12.904;2023-01-05T01:26:28;97171.28;;;9.34;80.80
72038;BME280;59900;50.788;12.904;2023-01-05T01:28:53;97167.47;;;9.36;79.95
72038;BME280;59900;50.788;12.904;2023-01-05T01:31:18;97159.00;;;9.41;79.37
72038;BME280;59900;50.788;12.904;2023-01-05T01:33:43;97164.84;;;9.43;78.67
72038;BME280;59900;50.788;12.904;2023-01-05T01:36:09;97160.03;;;9.46;77.02
72038;BME280;59900;50.788;12.904;2023-01-05T01:38:35;97165.47;;;9.51;75.53
72038;BME280;59900;50.788;12.904;2023-01-05T01:41:00;97171.56;;;9.58;74.35
72038;BME280;59900;50.788;12.904;2023-01-05T01:43:49;97175.00;;;9.66;72.66
72038;BME280;59900;50.788;12.904;2023-01-05T01:46:16;97172.19;;;9.74;71.50
72038;BME280;59900;50.788;12.904;2023-01-05T01:48:46;97167.56;;;9.82;70.11
72038;BME280;59900;50.788;12.904;2023-01-05T01:51:32;97172.84;;;9.89;69.63
72038;BME280;59900;50.788;12.904;2023-01-05T01:54:01;97165.16;;;9.94;68.75
72038;BME280;59900;50.788;12.904;2023-01-05T01:56:33;97166.38;;;9.98;67.85
72038;BME280;59900;50.788;12.904;2023-01-05T01:59:00;97168.00;;;10.05;67.06
72038;BME280;59900;50.788;12.904;2023-01-05T02:01:25;97138.31;;;10.11;66.66
72038;BME280;59900;50.788;12.904;2023-01-05T02:03:50;97147.81;;;10.12;66.35
72038;BME280;59900;50.788;12.904;2023-01-05T02:06:16;97157.13;;;10.15;66.37
72038;BME280;59900;50.788;12.904;2023-01-05T02:08:41;97151.47;;;10.18;66.75
72038;BME280;59900;50.788;12.904;2023-01-05T02:11:23;97147.00;;;10.19;66.15
72038;BME280;59900;50.788;12.904;2023-01-05T02:14:11;97147.81;;;10.19;66.16
72038;BME280;59900;50.788;12.904;2023-01-05T02:16:55;97134.28;;;10.22;66.25
72038;BME280;59900;50.788;12.904;2023-01-05T02:19:47;97137.13;;;10.21;66.96
72038;BME280;59900;50.788;12.904;2023-01-05T02:25:16;97131.06;;;10.13;67.49
72038;BME280;59900;50.788;12.904;2023-01-05T02:33:31;97128.81;;;10.10;67.77
72038;BME280;59900;50.788;12.904;2023-01-05T02:36:28;97127.22;;;10.09;68.43
72038;BME280;59900;50.788;12.904;2023-01-05T02:39:00;97137.72;;;10.09;68.95
72038;BME280;59900;50.788;12.904;2023-01-05T02:41:33;97139.53;;;10.09;69.63
72038;BME280;59900;50.788;12.904;2023-01-05T02:44:00;97125.78;;;10.07;70.02
72038;BME280;59900;50.788;12.904;2023-01-05T02:46:26;97118.13;;;10.05;70.87
72038;BME280;59900;50.788;12.904;2023-01-05T02:48:53;97115.66;;;10.04;71.09
72038;BME280;59900;50.788;12.904;2023-01-05T02:51:23;97129.22;;;10.01;71.21
72038;BME280;59900;50.788;12.904;2023-01-05T02:54:00;97117.69;;;9.95;71.42
72038;BME280;59900;50.788;12.904;2023-01-05T02:56:31;97119.72;;;9.93;71.56
72038;BME280;59900;50.788;12.904;2023-01-05T02:59:06;97130.03;;;9.95;71.46
72038;BME280;59900;50.788;12.904;2023-01-05T03:01:38;97140.94;;;9.92;71.63
72038;BME280;59900;50.788;12.904;2023-01-05T03:04:11;97126.59;;;9.94;72.22
72038;BME280;59900;50.788;12.904;2023-01-05T03:06:47;97121.13;;;9.96;71.88
72038;BME280;59900;50.788;12.904;2023-01-05T03:09:16;97129.81;;;9.96;71.79
72038;BME280;59900;50.788;12.904;2023-01-05T03:11:49;97150.22;;;9.94;71.24
72038;BME280;59900;50.788;12.904;2023-01-05T03:14:54;97130.81;;;9.95;71.71
72038;BME280;59900;50.788;12.904;2023-01-05T03:17:29;97146.78;;;9.94;71.06
72038;BME280;59900;50.788;12.904;2023-01-05T03:19:57;97149.41;;;9.94;70.84
72038;BME280;59900;50.788;12.904;2023-01-05T03:22:30;97134.25;;;9.96;70.90
72038;BME280;59900;50.788;12.904;2023-01-05T03:25:18;97145.56;;;9.96;70.87
72038;BME280;59900;50.788;12.904;2023-01-05T03:28:03;97146.78;;;9.94;71.20
72038;BME280;59900;50.788;12.904;2023-01-05T03:31:02;97151.22;;;9.93;70.54
72038;BME280;59900;50.788;12.904;2023-01-05T03:37:01;97145.56;;;9.90;70.68
72038;BME280;59900;50.788;12.904;2023-01-05T03:39:28;97139.72;;;9.88;70.86
72038;BME280;59900;50.788;12.904;2023-01-05T03:41:55;97165.97;;;9.88;71.01
72038;BME280;59900;50.788;12.904;2023-01-05T03:44:20;97145.97;;;9.87;71.00
72038;BME280;59900;50.788;12.904;2023-01-05T03:46:46;97144.53;;;9.84;71.11
72038;BME280;59900;50.788;12.904;2023-01-05T03:49:11;97148.78;;;9.85;70.28
72038;BME280;59900;50.788;12.904;2023-01-05T03:51:37;97150.22;;;9.88;69.88
72038;BME280;59900;50.788;12.904;2023-01-05T03:54:02;97165.16;;;9.87;70.47
72038;BME280;59900;50.788;12.904;2023-01-05T03:56:28;97140.13;;;9.91;70.33
72038;BME280;59900;50.788;12.904;2023-01-05T03:58:53;97145.56;;;9.90;70.20
72038;BME280;59900;50.788;12.904;2023-01-05T04:01:18;97143.75;;;9.90;70.09
72038;BME280;59900;50.788;12.904;2023-01-05T04:03:43;97156.28;;;9.88;70.15
72038;BME280;59900;50.788;12.904;2023-01-05T04:06:09;97163.72;;;9.85;71.09
72038;BME280;59900;50.788;12.904;2023-01-05T04:08:34;97151.41;;;9.85;71.26
72038;BME280;59900;50.788;12.904;2023-01-05T04:11:19;97169.78;;;9.85;69.01
72038;BME280;59900;50.788;12.904;2023-01-05T04:13:44;97167.38;;;9.90;68.30
72038;BME280;59900;50.788;12.904;2023-01-05T04:16:10;97172.84;;;9.89;68.16
72038;BME280;59900;50.788;12.904;2023-01-05T04:18:35;97171.00;;;9.89;67.98
72038;BME280;59900;50.788;12.904;2023-01-05T04:21:01;97191.81;;;9.91;68.02
72038;BME280;59900;50.788;12.904;2023-01-05T04:23:26;97172.22;;;9.93;66.78
72038;BME280;59900;50.788;12.904;2023-01-05T04:25:51;97189.38;;;9.96;66.64
72038;BME280;59900;50.788;12.904;2023-01-05T04:28:17;97190.19;;;9.96;66.82
72038;BME280;59900;50.788;12.904;2023-01-05T04:30:43;97188.78;;;9.94;67.04
72038;BME280;59900;50.788;12.904;2023-01-05T04:33:08;97183.94;;;9.91;66.60
72038;BME280;59900;50.788;12.904;2023-01-05T04:35:34;97186.56;;;9.91;66.53
72038;BME280;59900;50.788;12.904;2023-01-05T04:37:59;97186.34;;;9.92;66.91
72038;BME280;59900;50.788;12.904;2023-01-05T04:40:24;97228.56;;;9.91;67.30
72038;BME280;59900;50.788;12.904;2023-01-05T04:42:49;97210.34;;;9.89;66.86
72038;BME280;59900;50.788;12.904;2023-01-05T04:45:15;97200.06;;;9.88;67.26
72038;BME280;59900;50.788;12.904;2023-01-05T04:47:40;97199.88;;;9.89;67.04
72038;BME280;59900;50.788;12.904;2023-01-05T04:50:06;97225.72;;;9.86;67.47
72038;BME280;59900;50.788;12.904;2023-01-05T04:52:31;97238.00;;;9.79;67.38
72038;BME280;59900;50.788;12.904;2023-01-05T04:54:56;97208.31;;;9.78;67.33
72038;BME280;59900;50.788;12.904;2023-01-05T04:57:22;97234.16;;;9.75;67.81
72038;BME280;59900;50.788;12.904;2023-01-05T04:59:47;97207.53;;;9.71;67.70
72038;BME280;59900;50.788;12.904;2023-01-05T05:02:13;97199.66;;;9.71;67.48
72038;BME280;59900;50.788;12.904;2023-01-05T05:04:38;97208.72;;;9.69;67.64
72038;BME280;59900;50.788;12.904;2023-01-05T05:07:03;97190.53;;;9.67;68.02
72038;BME280;59900;50.788;12.904;2023-01-05T05:09:29;97216.19;;;9.65;67.77
72038;BME280;59900;50.788;12.904;2023-01-05T05:11:54;97227.88;;;9.63;68.10
72038;BME280;59900;50.788;12.904;2023-01-05T05:14:19;97215.16;;;9.60;68.10
72038;BME280;59900;50.788;12.904;2023-01-05T05:16:44;97211.91;;;9.57;68.36
72038;BME280;59900;50.788;12.904;2023-01-05T05:19:10;97229.28;;;9.58;68.44
72038;BME280;59900;50.788;12.904;2023-01-05T05:21:35;97232.88;;;9.57;68.25
72038;BME280;59900;50.788;12.904;2023-01-05T05:24:00;97235.91;;;9.54;68.76
72038;BME280;59900;50.788;12.904;2023-01-05T05:26:25;97230.88;;;9.53;68.85
72038;BME280;59900;50.788;12.904;2023-01-05T05:28:51;97231.84;;;9.52;69.08
72038;BME280;59900;50.788;12.904;2023-01-05T05:31:16;97230.25;;;9.51;68.18
72038;BME280;59900;50.788;12.904;2023-01-05T05:33:41;97228.25;;;9.53;68.25
72038;BME280;59900;50.788;12.904;2023-01-05T05:36:07;97244.16;;;9.51;68.48
72038;BME280;59900;50.788;12.904;2023-01-05T05:38:32;97249.41;;;9.51;67.91
72038;BME280;59900;50.788;12.904;2023-01-05T05:40:57;97229.66;;;9.55;68.05
72038;BME280;59900;50.788;12.904;2023-01-05T05:43:22;97241.16;;;9.54;67.90
72038;BME280;59900;50.788;12.904;2023-01-05T05:45:48;97236.94;;;9.53;67.97
72038;BME280;59900;50.788;12.904;2023-01-05T05:48:13;97231.25;;;9.50;68.62
72038;BME280;59900;50.788;12.904;2023-01-05T05:50:38;97264.13;;;9.46;68.46
72038;BME280;59900;50.788;12.904;2023-01-05T05:53:03;97249.00;;;9.48;68.72
72038;BME280;59900;50.788;12.904;2023-01-05T05:55:29;97248.59;;;9.44;68.74
72038;BME280;59900;50.788;12.904;2023-01-05T05:57:54;97251.22;;;9.44;69.16
72038;BME280;59900;50.788;12.904;2023-01-05T06:00:19;97254.25;;;9.48;69.01
72038;BME280;59900;50.788;12.904;2023-01-05T06:02:44;97253.44;;;9.47;69.40
72038;BME280;59900;50.788;12.904;2023-01-05T06:05:10;97262.09;;;9.41;68.93
72038;BME280;59900;50.788;12.904;2023-01-05T06:07:35;97259.03;;;9.38;69.14
72038;BME280;59900;50.788;12.904;2023-01-05T06:10:00;97255.44;;;9.39;69.52
72038;BME280;59900;50.788;12.904;2023-01-05T06:12:25;97245.34;;;9.36;69.90
72038;BME280;59900;50.788;12.904;2023-01-05T06:14:51;97275.97;;;9.35;69.72
72038;BME280;59900;50.788;12.904;2023-01-05T06:17:16;97285.44;;;9.30;69.60
72038;BME280;59900;50.788;12.904;2023-01-05T06:19:41;97279.97;;;9.31;69.27
72038;BME280;59900;50.788;12.904;2023-01-05T06:22:06;97297.31;;;9.26;69.47
72038;BME280;59900;50.788;12.904;2023-01-05T06:24:32;97279.34;;;9.23;69.48
72038;BME280;59900;50.788;12.904;2023-01-05T06:26:57;97279.53;;;9.21;70.02
72038;BME280;59900;50.788;12.904;2023-01-05T06:29:22;97278.13;;;9.19;69.85
72038;BME280;59900;50.788;12.904;2023-01-05T06:31:47;97279.13;;;9.18;70.61
72038;BME280;59900;50.788;12.904;2023-01-05T06:34:13;97286.13;;;9.11;70.41
72038;BME280;59900;50.788;12.904;2023-01-05T06:36:38;97282.28;;;9.07;70.82
72038;BME280;59900;50.788;12.904;2023-01-05T06:39:03;97280.03;;;9.04;71.23
72038;BME280;59900;50.788;12.904;2023-01-05T06:41:28;97292.28;;;8.96;71.47
72038;BME280;59900;50.788;12.904;2023-01-05T06:43:54;97293.03;;;8.90;72.72
72038;BME280;59900;50.788;12.904;2023-01-05T06:46:20;97317.00;;;8.87;72.75
72038;BME280;59900;50.788;12.904;2023-01-05T06:48:45;97325.25;;;8.84;73.42
72038;BME280;59900;50.788;12.904;2023-01-05T06:51:10;97301.28;;;8.87;73.64
72038;BME280;59900;50.788;12.904;2023-01-05T06:53:35;97315.59;;;8.85;73.85
72038;BME280;59900;50.788;12.904;2023-01-05T06:56:01;97334.34;;;8.88;73.91
72038;BME280;59900;50.788;12.904;2023-01-05T06:58:26;97321.44;;;8.87;73.92
72038;BME280;59900;50.788;12.904;2023-01-05T07:00:52;97306.09;;;8.84;74.48
72038;BME280;59900;50.788;12.904;2023-01-05T07:03:18;97305.72;;;8.87;74.42
72038;BME280;59900;50.788;12.904;2023-01-05T07:05:43;97307.94;;;8.83;74.32
72038;BME280;59900;50.788;12.904;2023-01-05T07:08:08;97312.97;;;8.85;73.89
72038;BME280;59900;50.788;12.904;2023-01-05T07:10:33;97315.78;;;8.83;74.31
72038;BME280;59900;50.788;12.904;2023-01-05T07:12:59;97327.88;;;8.84;74.04
72038;BME280;59900;50.788;12.904;2023-01-05T07:15:24;97337.53;;;8.84;74.40
72038;BME280;59900;50.788;12.904;2023-01-05T07:17:49;97332.66;;;8.81;74.98
72038;BME280;59900;50.788;12.904;2023-01-05T07:20:14;97333.25;;;8.76;75.21
72038;BME280;59900;50.788;12.904;2023-01-05T07:22:40;97341.28;;;8.75;75.76
72038;BME280;59900;50.788;12.904;2023-01-05T07:25:06;97363.88;;;8.76;76.01
72038;BME280;59900;50.788;12.904;2023-01-05T07:27:32;97350.34;;;8.72;75.99
72038;BME280;59900;50.788;12.904;2023-01-05T07:29:57;97350.16;;;8.74;75.81
72038;BME280;59900;50.788;12.904;2023-01-05T07:32:23;97357.00;;;8.75;76.14
72038;BME280;59900;50.788;12.904;2023-01-05T07:34:48;97352.97;;;8.72;76.17
72038;BME280;59900;50.788;12.904;2023-01-05T07:37:13;97353.34;;;8.69;75.79
72038;BME280;59900;50.788;12.904;2023-01-05T07:39:39;97362.81;;;8.70;76.00
72038;BME280;59900;50.788;12.904;2023-01-05T07:42:04;97389.59;;;8.66;76.16
72038;BME280;59900;50.788;12.904;2023-01-05T07:44:29;97379.91;;;8.66;75.79
72038;BME280;59900;50.788;12.904;2023-01-05T07:46:55;97400.06;;;8.66;76.10
72038;BME280;59900;50.788;12.904;2023-01-05T07:49:20;97370.25;;;8.67;76.08
72038;BME280;59900;50.788;12.904;2023-01-05T07:51:45;97374.66;;;8.66;75.97
72038;BME280;59900;50.788;12.904;2023-01-05T07:54:10;97376.28;;;8.67;75.64
72038;BME280;59900;50.788;12.904;2023-01-05T07:56:35;97388.78;;;8.65;75.66
72038;BME280;59900;50.788;12.904;2023-01-05T07:59:01;97376.28;;;8.67;75.76
72038;BME280;59900;50.788;12.904;2023-01-05T08:01:26;97378.09;;;8.67;75.76
72038;BME280;59900;50.788;12.904;2023-01-05T08:03:51;97384.78;;;8.69;75.43
72038;BME280;59900;50.788;12.904;2023-01-05T08:06:18;97398.88;;;8.68;75.31
72038;BME280;59900;50.788;12.904;2023-01-05T08:08:44;97416.41;;;8.68;74.97
72038;BME280;59900;50.788;12.904;2023-01-05T08:11:11;97391.63;;;8.70;75.30
72038;BME280;59900;50.788;12.904;2023-01-05T08:13:39;97401.75;;;8.73;75.22
72038;BME280;59900;50.788;12.904;2023-01-05T08:16:23;97384.41;;;8.72;75.23
72038;BME280;59900;50.788;12.904;2023-01-05T08:18:49;97404.75;;;8.70;75.39
72038;BME280;59900;50.788;12.904;2023-01-05T08:21:14;97389.63;;;8.72;74.79
72038;BME280;59900;50.788;12.904;2023-01-05T08:23:39;97407.34;;;8.70;74.71
72038;BME280;59900;50.788;12.904;2023-01-05T08:26:07;97403.38;;;8.74;74.86
72038;BME280;59900;50.788;12.904;2023-01-05T08:28:34;97406.16;;;8.73;74.40
72038;BME280;59900;50.788;12.904;2023-01-05T08:31:07;97404.38;;;8.73;74.87
72038;BME280;59900;50.788;12.904;2023-01-05T08:33:34;97431.63;;;8.79;74.72
72038;BME280;59900;50.788;12.904;2023-01-05T08:36:00;97410.03;;;8.77;74.33
72038;BME280;59900;50.788;12.904;2023-01-05T08:38:25;97417.72;;;8.78;74.00
72038;BME280;59900;50.788;12.904;2023-01-05T08:40:51;97440.91;;;8.81;74.33
72038;BME280;59900;50.788;12.904;2023-01-05T08:43:17;97426.63;;;8.84;74.41
72038;BME280;59900;50.788;12.904;2023-01-05T08:45:46;97459.25;;;8.81;74.46
72038;BME280;59900;50.788;12.904;2023-01-05T08:48:11;97446.59;;;8.85;74.16
72038;BME280;59900;50.788;12.904;2023-01-05T08:50:36;97439.56;;;8.85;74.07
72038;BME280;59900;50.788;12.904;2023-01-05T08:53:02;97446.59;;;8.85;74.19
72038;BME280;59900;50.788;12.904;2023-01-05T08:55:27;97440.53;;;8.84;73.94
72038;BME280;59900;50.788;12.904;2023-01-05T08:57:55;97445.16;;;8.82;73.60
72038;BME280;59900;50.788;12.904;2023-01-05T09:00:20;97447.59;;;8.84;74.36
72038;BME280;59900;50.788;12.904;2023-01-05T09:02:46;97465.94;;;8.84;74.03
72038;BME280;59900;50.788;12.904;2023-01-05T09:05:12;97459.09;;;8.83;74.19
72038;BME280;59900;50.788;12.904;2023-01-05T09:07:37;97444.97;;;8.84;74.35
72038;BME280;59900;50.788;12.904;2023-01-05T09:10:03;97463.31;;;8.84;74.02
72038;BME280;59900;50.788;12.904;2023-01-05T09:12:29;97476.41;;;8.84;74.42
72038;BME280;59900;50.788;12.904;2023-01-05T09:14:54;97463.13;;;8.85;74.48
72038;BME280;59900;50.788;12.904;2023-01-05T09:17:19;97467.13;;;8.81;74.34
72038;BME280;59900;50.788;12.904;2023-01-05T09:19:44;97465.16;;;8.83;74.30
72038;BME280;59900;50.788;12.904;2023-01-05T09:22:10;97468.91;;;8.81;74.66
72038;BME280;59900;50.788;12.904;2023-01-05T09:24:35;97461.13;;;8.87;74.42
72038;BME280;59900;50.788;12.904;2023-01-05T09:27:00;97478.25;;;8.83;74.73
72038;BME280;59900;50.788;12.904;2023-01-05T09:29:27;97483.91;;;8.87;74.47
72038;BME280;59900;50.788;12.904;2023-01-05T09:31:52;97470.44;;;8.90;75.14
72038;BME280;59900;50.788;12.904;2023-01-05T09:34:18;97481.56;;;8.92;75.19
72038;BME280;59900;50.788;12.904;2023-01-05T09:36:43;97495.19;;;8.87;75.15
72038;BME280;59900;50.788;12.904;2023-01-05T09:39:09;97493.19;;;8.89;75.17
72038;BME280;59900;50.788;12.904;2023-01-05T09:41:45;97474.06;;;8.89;75.53
72038;BME280;59900;50.788;12.904;2023-01-05T09:44:58;97477.66;;;8.88;75.51
72038;BME280;59900;50.788;12.904;2023-01-05T09:47:10;97485.72;;;8.86;76.03
72038;BME280;59900;50.788;12.904;2023-01-05T09:49:38;97464.38;;;8.89;75.72
72038;BME280;59900;50.788;12.904;2023-01-05T09:52:07;97483.81;;;8.95;75.88
72038;BME280;59900;50.788;12.904;2023-01-05T09:54:35;97466.44;;;8.94;75.45
72038;BME280;59900;50.788;12.904;2023-01-05T09:57:02;97475.94;;;8.95;75.60
72038;BME280;59900;50.788;12.904;2023-01-05T09:59:30;97474.56;;;8.99;75.18
72038;BME280;59900;50.788;12.904;2023-01-05T10:01:59;97489.66;;;8.97;75.11
72038;BME280;59900;50.788;12.904;2023-01-05T10:04:27;97486.41;;;8.95;75.03
72038;BME280;59900;50.788;12.904;2023-01-05T10:07:04;97468.88;;;8.95;74.45
72038;BME280;59900;50.788;12.904;2023-01-05T10:09:34;97501.94;;;8.96;74.27
72038;BME280;59900;50.788;12.904;2023-01-05T10:12:23;97492.72;;;9.00;74.45
72038;BME280;59900;50.788;12.904;2023-01-05T10:15:11;97478.81;;;9.00;73.76
72038;BME280;59900;50.788;12.904;2023-01-05T10:17:38;97491.72;;;9.01;74.38
72038;BME280;59900;50.788;12.904;2023-01-05T10:20:13;97484.66;;;9.02;73.91
72038;BME280;59900;50.788;12.904;2023-01-05T10:25:37;97494.16;;;9.03;73.94
72038;BME280;59900;50.788;12.904;2023-01-05T10:28:33;97494.69;;;8.98;74.53
72038;BME280;59900;50.788;12.904;2023-01-05T10:31:08;97495.88;;;8.96;74.62
72038;BME280;59900;50.788;12.904;2023-01-05T10:33:46;97499.91;;;8.92;74.57
72038;BME280;59900;50.788;12.904;2023-01-05T10:39:17;97496.53;;;8.98;74.17
72038;BME280;59900;50.788;12.904;2023-01-05T10:44:42;97494.78;;;9.05;74.02
72038;BME280;59900;50.788;12.904;2023-01-05T10:47:12;97492.97;;;9.06;73.85
72038;BME280;59900;50.788;12.904;2023-01-05T10:49:40;97503.66;;;9.04;73.76
72038;BME280;59900;50.788;12.904;2023-01-05T10:52:11;97477.47;;;9.11;74.04
72038;BME280;59900;50.788;12.904;2023-01-05T10:54:39;97503.69;;;9.11;72.96
72038;BME280;59900;50.788;12.904;2023-01-05T11:00:03;97498.97;;;9.21;72.77
72038;BME280;59900;50.788;12.904;2023-01-05T11:02:32;97498.75;;;9.22;72.47
72038;BME280;59900;50.788;12.904;2023-01-05T11:05:05;97488.66;;;9.19;72.37
72038;BME280;59900;50.788;12.904;2023-01-05T11:07:31;97505.41;;;9.18;71.83
72038;BME280;59900;50.788;12.904;2023-01-05T11:09:56;97521.75;;;9.20;71.76
72038;BME280;59900;50.788;12.904;2023-01-05T11:12:23;97518.75;;;9.23;71.46
72038;BME280;59900;50.788;12.904;2023-01-05T11:14:53;97536.28;;;9.23;71.00
72038;BME280;59900;50.788;12.904;2023-01-05T11:17:22;97518.75;;;9.23;71.40
72038;BME280;59900;50.788;12.904;2023-01-05T11:19:50;97530.22;;;9.22;71.73
72038;BME280;59900;50.788;12.904;2023-01-05T11:22:27;97545.34;;;9.20;71.32
72038;BME280;59900;50.788;12.904;2023-01-05T11:24:52;97535.28;;;9.24;71.75
72038;BME280;59900;50.788;12.904;2023-01-05T11:29:43;97516.75;;;9.25;71.47
72038;BME280;59900;50.788;12.904;2023-01-05T11:32:10;97519.19;;;9.27;71.53
72038;BME280;59900;50.788;12.904;2023-01-05T11:34:47;97529.47;;;9.28;71.61
72038;BME280;59900;50.788;12.904;2023-01-05T11:37:22;97547.97;;;9.20;73.10
72038;BME280;59900;50.788;12.904;2023-01-05T11:39:51;97546.81;;;9.08;74.46
72038;BME280;59900;50.788;12.904;2023-01-05T11:45:02;97541.09;;;8.98;75.47
72038;BME280;59900;50.788;12.904;2023-01-05T11:47:49;97561.59;;;8.94;75.28
72038;BME280;59900;50.788;12.904;2023-01-05T11:50:23;97551.56;;;8.98;75.11
72038;BME280;59900;50.788;12.904;2023-01-05T11:52:54;97560.88;;;9.00;74.97
72038;BME280;59900;50.788;12.904;2023-01-05T11:57:50;97558.41;;;8.99;75.59
72038;BME280;59900;50.788;12.904;2023-01-05T12:00:27;97557.44;;;9.00;75.63
72038;BME280;59900;50.788;12.904;2023-01-05T12:05:51;97557.69;;;9.05;74.11
72038;BME280;59900;50.788;12.904;2023-01-05T12:08:42;97557.13;;;9.10;73.80
72038;BME280;59900;50.788;12.904;2023-01-05T12:11:20;97545.91;;;9.16;73.84
72038;BME280;59900;50.788;12.904;2023-01-05T12:16:46;97571.84;;;9.11;75.95
72038;BME280;59900;50.788;12.904;2023-01-05T12:19:21;97567.72;;;9.01;77.04
72038;BME280;59900;50.788;12.904;2023-01-05T12:30:51;97547.81;;;9.07;75.45
72038;BME280;59900;50.788;12.904;2023-01-05T12:36:55;97569.13;;;9.19;75.72
72038;BME280;59900;50.788;12.904;2023-01-05T12:42:31;97569.75;;;9.21;73.91
72038;BME280;59900;50.788;12.904;2023-01-05T12:45:24;97577.03;;;9.25;73.43
72038;BME280;59900;50.788;12.904;2023-01-05T12:47:57;97573.22;;;9.28;73.55
72038;BME280;59900;50.788;12.904;2023-01-05T12:50:29;97574.25;;;9.27;73.59
72038;BME280;59900;50.788;12.904;2023-01-05T12:53:04;97582.94;;;9.27;73.59
72038;BME280;59900;50.788;12.904;2023-01-05T12:55:45;97580.31;;;9.27;73.48
72038;BME280;59900;50.788;12.904;2023-01-05T12:58:31;97591.59;;;9.28;73.71
72038;BME280;59900;50.788;12.904;2023-01-05T13:01:00;97581.31;;;9.26;72.38
72038;BME280;59900;50.788;12.904;2023-01-05T13:04:25;97587.38;;;9.27;72.35
72038;BME280;59900;50.788;12.904;2023-01-05T13:06:40;97614.56;;;9.26;72.39
72038;BME280;59900;50.788;12.904;2023-01-05T13:09:20;97599.66;;;9.26;72.53
72038;BME280;59900;50.788;12.904;2023-01-05T13:11:57;97601.28;;;9.27;73.09
72038;BME280;59900;50.788;12.904;2023-01-05T13:14:29;97602.03;;;9.21;73.34
72038;BME280;59900;50.788;12.904;2023-01-05T13:17:07;97608.84;;;9.16;74.42
72038;BME280;59900;50.788;12.904;2023-01-05T13:19:40;97603.13;;;9.12;74.99
72038;BME280;59900;50.788;12.904;2023-01-05T13:22:19;97596.25;;;9.11;74.42
72038;BME280;59900;50.788;12.904;2023-01-05T13:24:57;97604.13;;;9.11;74.45
72038;BME280;59900;50.788;12.904;2023-01-05T13:27:25;97588.03;;;9.14;74.30
72038;BME280;59900;50.788;12.904;2023-01-05T13:29:53;97603.38;;;9.17;74.36
72038;BME280;59900;50.788;12.904;2023-01-05T13:32:46;97612.06;;;9.18;74.53
72038;BME280;59900;50.788;12.904;2023-01-05T13:38:14;97607.19;;;9.15;75.32
72038;BME280;59900;50.788;12.904;2023-01-05T13:40:54;97605.41;;;9.15;75.10
72038;BME280;59900;50.788;12.904;2023-01-05T13:43:38;97629.81;;;9.16;74.69
72038;BME280;59900;50.788;12.904;2023-01-05T13:51:51;97607.06;;;9.23;74.00
72038;BME280;59900;50.788;12.904;2023-01-05T13:54:38;97626.41;;;9.22;74.48
72038;BME280;59900;50.788;12.904;2023-01-05T13:57:06;97648.22;;;9.22;74.04
72038;BME280;59900;50.788;12.904;2023-01-05T13:59:34;97628.25;;;9.21;74.19
72038;BME280;59900;50.788;12.904;2023-01-05T14:02:02;97655.25;;;9.22;74.05
72038;BME280;59900;50.788;12.904;2023-01-05T14:04:29;97632.69;;;9.21;73.89
72038;BME280;59900;50.788;12.904;2023-01-05T14:06:58;97649.22;;;9.21;74.10
72038;BME280;59900;50.788;12.904;2023-01-05T14:09:28;97650.94;;;9.14;76.92
72038;BME280;59900;50.788;12.904;2023-01-05T14:14:59;97654.22;;;8.87;78.71